sensor_id;sensor_type;location;lat;lon;timestamp;P1;durP1;ratioP1;P2;durP2;ratioP2
47225;SDS011;32965;64.142;-21.912;2022-12-18T00:02:03;0.40;;;0.30;;
47225;SDS011;32965;64.142;-21.912;2022-12-18T00:04:29;1.90;;;0.30;;
47225;SDS011;32965;64.142;-21.912;2022-12-18T00:06:55;0.97;;;0.20;;
47225;SDS011;32965;64.142;-21.912;2022-12-18T00:09:21;2.83;;;0.17;;
47225;SDS011;32965;64.142;-21.912;2022-12-18T00:11:47;2.23;;;0.40;;
47225;SDS011;32965;64.142;-21.912;2022-12-18T00:14:14;1.57;;;0.20;;
47225;SDS011;32965;64.142;-21.912;2022-12-18T00:16:42;1.93;;;0.30;;
47225;SDS011;32965;64.142;-21.912;2022-12-18T00:19:09;0.20;;;0.20;;
47225;SDS011;32965;64.142;-21.912;2022-12-18T00:21:35;1.63;;;0.23;;
47225;SDS011;32965;64.142;-21.912;2022-12-18T00:24:01;0.20;;;0.10;;
47225;SDS011;32965;64.142;-21.912;2022-12-18T00:26:30;2.13;;;0.20;;
47225;SDS011;32965;64.142;-21.912;2022-12-18T00:28:59;0.80;;;0.20;;
47225;SDS011;32965;64.142;-21.912;2022-12-18T00:31:30;1.33;;;0.30;;
47225;SDS011;32965;64.142;-21.912;2022-12-18T00:33:56;0.80;;;0.30;;
47225;SDS011;32965;64.142;-21.912;2022-12-18T00:36:24;2.40;;;0.30;;
47225;SDS011;32965;64.142;-21.912;2022-12-18T00:38:56;2.27;;;0.20;;
47225;SDS011;32965;64.142;-21.912;2022-12-18T00:41:23;5.33;;;0.43;;
47225;SDS011;32965;64.142;-21.912;2022-12-18T00:44:09;2.00;;;0.20;;
47225;SDS011;32965;64.142;-21.912;2022-12-18T00:46:36;4.65;;;0.47;;
47225;SDS011;32965;64.142;-21.912;2022-12-18T00:49:02;1.20;;;0.10;;
47225;SDS011;32965;64.142;-21.912;2022-12-18T00:51:29;1.97;;;0.30;;
47225;SDS011;32965;64.142;-21.912;2022-12-18T00:53:55;1.17;;;0.37;;
47225;SDS011;32965;64.142;-21.912;2022-12-18T00:56:21;1.77;;;0.30;;
47225;SDS011;32965;64.142;-21.912;2022-12-18T00:58:47;2.93;;;0.47;;
47225;SDS011;32965;64.142;-21.912;2022-12-18T01:01:14;3.93;;;0.50;;
47225;SDS011;32965;64.142;-21.912;2022-12-18T01:03:40;2.43;;;1.13;;
47225;SDS011;32965;64.142;-21.912;2022-12-18T01:06:10;2.53;;;0.67;;
47225;SDS011;32965;64.142;-21.912;2022-12-18T01:08:37;3.80;;;0.30;;
47225;SDS011;32965;64.142;-21.912;2022-12-18T01:11:07;2.10;;;0.20;;
47225;SDS011;32965;64.142;-21.912;2022-12-18T01:13:40;0.63;;;0.20;;
47225;SDS011;32965;64.142;-21.912;2022-12-18T01:16:07;0.47;;;0.10;;
47225;SDS011;32965;64.142;-21.912;2022-12-18T01:18:34;0.50;;;0.23;;
47225;SDS011;32965;64.142;-21.912;2022-12-18T01:21:00;0.70;;;0.20;;
47225;SDS011;32965;64.142;-21.912;2022-12-18T01:23:26;3.13;;;0.50;;
47225;SDS011;32965;64.142;-21.912;2022-12-18T01:25:52;0.77;;;0.10;;
47225;SDS011;32965;64.142;-21.912;2022-12-18T01:28:18;1.03;;;0.30;;
47225;SDS011;32965;64.142;-21.912;2022-12-18T01:30:44;0.67;;;0.10;;
47225;SDS011;32965;64.142;-21.912;2022-12-18T01:33:10;1.27;;;0.20;;
47225;SDS011;32965;64.142;-21.912;2022-12-18T01:35:40;5.70;;;0.40;;
47225;SDS011;32965;64.142;-21.912;2022-12-18T01:38:07;4.03;;;0.10;;
47225;SDS011;32965;64.142;-21.912;2022-12-18T01:40:33;1.40;;;0.20;;
47225;SDS011;32965;64.142;-21.912;2022-12-18T01:42:59;0.77;;;0.10;;
47225;SDS011;32965;64.142;-21.912;2022-12-18T01:45:29;1.10;;;0.20;;
47225;SDS011;32965;64.142;-21.912;2022-12-18T01:47:58;3.03;;;0.23;;
47225;SDS011;32965;64.142;-21.912;2022-12-18T01:50:41;0.97;;;0.10;;
47225;SDS011;32965;64.142;-21.912;2022-12-18T01:53:13;1.07;;;0.20;;
47225;SDS011;32965;64.142;-21.912;2022-12-18T01:55:51;1.20;;;0.20;;
47225;SDS011;32965;64.142;-21.912;2022-12-18T01:58:19;1.50;;;0.30;;
47225;SDS011;32965;64.142;-21.912;2022-12-18T02:00:48;0.30;;;0.10;;
47225;SDS011;32965;64.142;-21.912;2022-12-18T02:03:14;0.57;;;0.10;;
47225;SDS011;32965;64.142;-21.912;2022-12-18T02:27:54;1.80;;;0.20;;
47225;SDS011;32965;64.142;-21.912;2022-12-18T02:30:24;1.70;;;0.20;;
47225;SDS011;32965;64.142;-21.912;2022-12-18T02:32:55;0.93;;;0.10;;
47225;SDS011;32965;64.142;-21.912;2022-12-18T02:35:25;0.60;;;0.13;;
47225;SDS011;32965;64.142;-21.912;2022-12-18T02:37:54;1.43;;;0.10;;
47225;SDS011;32965;64.142;-21.912;2022-12-18T02:40:22;1.53;;;0.30;;
47225;SDS011;32965;64.142;-21.912;2022-12-18T02:42:51;1.00;;;0.10;;
47225;SDS011;32965;64.142;-21.912;2022-12-18T02:45:17;1.30;;;0.10;;
47225;SDS011;32965;64.142;-21.912;2022-12-18T02:47:45;0.27;;;0.10;;
47225;SDS011;32965;64.142;-21.912;2022-12-18T02:58:16;0.13;;;0.10;;
47225;SDS011;32965;64.142;-21.912;2022-12-18T03:00:56;0.83;;;0.20;;
47225;SDS011;32965;64.142;-21.912;2022-12-18T03:03:30;0.60;;;0.20;;
47225;SDS011;32965;64.142;-21.912;2022-12-18T03:06:07;2.30;;;0.47;;
47225;SDS011;32965;64.142;-21.912;2022-12-18T03:08:37;0.10;;;0.00;;
47225;SDS011;32965;64.142;-21.912;2022-12-18T03:11:08;0.60;;;0.20;;
47225;SDS011;32965;64.142;-21.912;2022-12-18T03:16:11;1.50;;;0.13;;
47225;SDS011;32965;64.142;-21.912;2022-12-18T03:21:06;0.43;;;0.10;;
47225;SDS011;32965;64.142;-21.912;2022-12-18T03:23:40;1.33;;;0.20;;
47225;SDS011;32965;64.142;-21.912;2022-12-18T03:26:10;0.00;;;0.00;;
47225;SDS011;32965;64.142;-21.912;2022-12-18T03:28:44;0.20;;;0.10;;
47225;SDS011;32965;64.142;-21.912;2022-12-18T03:31:14;1.57;;;0.20;;
47225;SDS011;32965;64.142;-21.912;2022-12-18T03:33:46;1.60;;;0.30;;
47225;SDS011;32965;64.142;-21.912;2022-12-18T03:36:17;0.27;;;0.13;;
47225;SDS011;32965;64.142;-21.912;2022-12-18T03:38:43;1.40;;;0.13;;
47225;SDS011;32965;64.142;-21.912;2022-12-18T03:41:18;0.10;;;0.10;;
47225;SDS011;32965;64.142;-21.912;2022-12-18T03:44:36;0.93;;;0.10;;
47225;SDS011;32965;64.142;-21.912;2022-12-18T03:49:25;0.55;;;0.10;;
47225;SDS011;32965;64.142;-21.912;2022-12-18T03:52:18;1.10;;;0.20;;
47225;SDS011;32965;64.142;-21.912;2022-12-18T03:54:48;0.60;;;0.10;;
47225;SDS011;32965;64.142;-21.912;2022-12-18T03:57:19;1.03;;;0.13;;
47225;SDS011;32965;64.142;-21.912;2022-12-18T03:59:49;5.07;;;1.53;;
47225;SDS011;32965;64.142;-21.912;2022-12-18T04:02:19;1.50;;;0.20;;
47225;SDS011;32965;64.142;-21.912;2022-12-18T04:04:47;1.77;;;0.10;;
47225;SDS011;32965;64.142;-21.912;2022-12-18T04:07:20;1.17;;;0.10;;
47225;SDS011;32965;64.142;-21.912;2022-12-18T04:09:48;0.60;;;0.10;;
47225;SDS011;32965;64.142;-21.912;2022-12-18T04:12:16;3.33;;;1.35;;
47225;SDS011;32965;64.142;-21.912;2022-12-18T04:14:42;0.77;;;0.10;;
47225;SDS011;32965;64.142;-21.912;2022-12-18T04:17:08;2.20;;;0.30;;
47225;SDS011;32965;64.142;-21.912;2022-12-18T04:19:34;0.80;;;0.00;;
47225;SDS011;32965;64.142;-21.912;2022-12-18T04:22:00;1.03;;;0.20;;
47225;SDS011;32965;64.142;-21.912;2022-12-18T04:24:26;2.67;;;0.20;;
47225;SDS011;32965;64.142;-21.912;2022-12-18T04:26:52;0.60;;;0.17;;
47225;SDS011;32965;64.142;-21.912;2022-12-18T04:29:18;1.87;;;0.17;;
47225;SDS011;32965;64.142;-21.912;2022-12-18T04:31:44;0.07;;;0.07;;
47225;SDS011;32965;64.142;-21.912;2022-12-18T04:34:10;0.10;;;0.00;;
47225;SDS011;32965;64.142;-21.912;2022-12-18T04:36:37;0.10;;;0.00;;
47225;SDS011;32965;64.142;-21.912;2022-12-18T04:39:03;1.30;;;0.30;;
47225;SDS011;32965;64.142;-21.912;2022-12-18T04:41:29;0.10;;;0.00;;
47225;SDS011;32965;64.142;-21.912;2022-12-18T04:43:55;1.00;;;0.37;;
47225;SDS011;32965;64.142;-21.912;2022-12-18T04:46:21;1.70;;;0.20;;
47225;SDS011;32965;64.142;-21.912;2022-12-18T04:48:47;0.20;;;0.10;;
47225;SDS011;32965;64.142;-21.912;2022-12-18T04:51:13;0.10;;;0.10;;
47225;SDS011;32965;64.142;-21.912;2022-12-18T04:53:39;0.00;;;0.00;;
47225;SDS011;32965;64.142;-21.912;2022-12-18T04:56:10;0.67;;;0.10;;
47225;SDS011;32965;64.142;-21.912;2022-12-18T04:58:37;0.60;;;0.00;;
47225;SDS011;32965;64.142;-21.912;2022-12-18T05:01:05;0.43;;;0.13;;
47225;SDS011;32965;64.142;-21.912;2022-12-18T05:03:32;1.37;;;0.23;;
47225;SDS011;32965;64.142;-21.912;2022-12-18T05:05:58;0.17;;;0.03;;
47225;SDS011;32965;64.142;-21.912;2022-12-18T05:08:24;0.10;;;0.03;;
47225;SDS011;32965;64.142;-21.912;2022-12-18T05:13:29;0.40;;;0.20;;
47225;SDS011;32965;64.142;-21.912;2022-12-18T05:15:56;0.10;;;0.10;;
47225;SDS011;32965;64.142;-21.912;2022-12-18T05:18:23;1.93;;;0.10;;
47225;SDS011;32965;64.142;-21.912;2022-12-18T05:20:49;1.60;;;0.20;;
47225;SDS011;32965;64.142;-21.912;2022-12-18T05:23:16;0.20;;;0.00;;
47225;SDS011;32965;64.142;-21.912;2022-12-18T05:25:46;2.40;;;0.30;;
47225;SDS011;32965;64.142;-21.912;2022-12-18T05:28:25;2.53;;;0.30;;
47225;SDS011;32965;64.142;-21.912;2022-12-18T05:30:57;1.05;;;0.20;;
47225;SDS011;32965;64.142;-21.912;2022-12-18T05:33:24;0.53;;;0.30;;
47225;SDS011;32965;64.142;-21.912;2022-12-18T05:35:55;0.73;;;0.30;;
47225;SDS011;32965;64.142;-21.912;2022-12-18T05:38:24;0.30;;;0.10;;
47225;SDS011;32965;64.142;-21.912;2022-12-18T05:40:51;0.67;;;0.10;;
47225;SDS011;32965;64.142;-21.912;2022-12-18T05:43:17;1.90;;;0.23;;
47225;SDS011;32965;64.142;-21.912;2022-12-18T05:45:44;0.37;;;0.20;;
47225;SDS011;32965;64.142;-21.912;2022-12-18T05:48:13;1.23;;;0.20;;
47225;SDS011;32965;64.142;-21.912;2022-12-18T05:50:40;0.47;;;0.20;;
47225;SDS011;32965;64.142;-21.912;2022-12-18T05:53:08;1.60;;;0.38;;
47225;SDS011;32965;64.142;-21.912;2022-12-18T05:55:34;0.50;;;0.20;;
47225;SDS011;32965;64.142;-21.912;2022-12-18T05:58:01;0.40;;;0.10;;
47225;SDS011;32965;64.142;-21.912;2022-12-18T06:00:27;1.60;;;0.30;;
47225;SDS011;32965;64.142;-21.912;2022-12-18T06:02:54;0.50;;;0.10;;
47225;SDS011;32965;64.142;-21.912;2022-12-18T06:05:20;0.40;;;0.10;;
47225;SDS011;32965;64.142;-21.912;2022-12-18T06:07:46;0.40;;;0.20;;
47225;SDS011;32965;64.142;-21.912;2022-12-18T06:10:11;0.43;;;0.10;;
47225;SDS011;32965;64.142;-21.912;2022-12-18T06:12:37;1.23;;;1.13;;
47225;SDS011;32965;64.142;-21.912;2022-12-18T06:15:04;1.07;;;0.10;;
47225;SDS011;32965;64.142;-21.912;2022-12-18T06:17:30;0.10;;;0.10;;
47225;SDS011;32965;64.142;-21.912;2022-12-18T06:19:56;0.73;;;0.10;;
47225;SDS011;32965;64.142;-21.912;2022-12-18T06:22:23;0.33;;;0.10;;
47225;SDS011;32965;64.142;-21.912;2022-12-18T06:24:49;0.43;;;0.13;;
47225;SDS011;32965;64.142;-21.912;2022-12-18T06:27:15;0.40;;;0.20;;
47225;SDS011;32965;64.142;-21.912;2022-12-18T06:29:41;1.07;;;0.10;;
47225;SDS011;32965;64.142;-21.912;2022-12-18T06:32:07;1.07;;;0.20;;
47225;SDS011;32965;64.142;-21.912;2022-12-18T06:34:34;1.87;;;0.17;;
47225;SDS011;32965;64.142;-21.912;2022-12-18T06:37:00;1.23;;;0.20;;
47225;SDS011;32965;64.142;-21.912;2022-12-18T06:39:29;0.63;;;0.10;;
47225;SDS011;32965;64.142;-21.912;2022-12-18T06:41:55;0.35;;;0.10;;
47225;SDS011;32965;64.142;-21.912;2022-12-18T06:44:21;1.83;;;0.10;;
47225;SDS011;32965;64.142;-21.912;2022-12-18T06:46:47;1.43;;;0.10;;
47225;SDS011;32965;64.142;-21.912;2022-12-18T06:49:13;0.60;;;0.40;;
47225;SDS011;32965;64.142;-21.912;2022-12-18T06:51:40;0.27;;;0.00;;
47225;SDS011;32965;64.142;-21.912;2022-12-18T06:54:07;0.60;;;0.20;;
47225;SDS011;32965;64.142;-21.912;2022-12-18T06:56:33;0.60;;;0.30;;
47225;SDS011;32965;64.142;-21.912;2022-12-18T06:58:59;1.63;;;0.20;;
47225;SDS011;32965;64.142;-21.912;2022-12-18T07:01:25;1.30;;;0.20;;
47225;SDS011;32965;64.142;-21.912;2022-12-18T07:03:55;0.20;;;0.10;;
47225;SDS011;32965;64.142;-21.912;2022-12-18T07:06:22;1.03;;;0.17;;
47225;SDS011;32965;64.142;-21.912;2022-12-18T07:08:50;0.15;;;0.10;;
47225;SDS011;32965;64.142;-21.912;2022-12-18T07:11:17;0.40;;;0.10;;
47225;SDS011;32965;64.142;-21.912;2022-12-18T07:13:44;1.40;;;0.10;;
47225;SDS011;32965;64.142;-21.912;2022-12-18T07:16:11;1.03;;;0.30;;
47225;SDS011;32965;64.142;-21.912;2022-12-18T07:18:40;2.27;;;0.20;;
47225;SDS011;32965;64.142;-21.912;2022-12-18T07:21:08;0.40;;;0.00;;
47225;SDS011;32965;64.142;-21.912;2022-12-18T07:23:35;1.38;;;0.20;;
47225;SDS011;32965;64.142;-21.912;2022-12-18T07:26:05;0.53;;;0.17;;
47225;SDS011;32965;64.142;-21.912;2022-12-18T07:28:36;1.67;;;0.20;;
47225;SDS011;32965;64.142;-21.912;2022-12-18T07:31:09;3.93;;;0.20;;
47225;SDS011;32965;64.142;-21.912;2022-12-18T07:33:37;1.73;;;0.20;;
47225;SDS011;32965;64.142;-21.912;2022-12-18T07:36:03;3.37;;;0.20;;
47225;SDS011;32965;64.142;-21.912;2022-12-18T07:38:30;1.23;;;0.40;;
47225;SDS011;32965;64.142;-21.912;2022-12-18T07:41:15;1.10;;;0.10;;
47225;SDS011;32965;64.142;-21.912;2022-12-18T07:43:41;1.30;;;0.20;;
47225;SDS011;32965;64.142;-21.912;2022-12-18T07:46:08;2.10;;;0.30;;
47225;SDS011;32965;64.142;-21.912;2022-12-18T07:48:35;2.20;;;0.20;;
47225;SDS011;32965;64.142;-21.912;2022-12-18T07:51:02;1.87;;;0.20;;
47225;SDS011;32965;64.142;-21.912;2022-12-18T07:53:29;1.55;;;0.20;;
47225;SDS011;32965;64.142;-21.912;2022-12-18T07:55:56;1.60;;;0.30;;
47225;SDS011;32965;64.142;-21.912;2022-12-18T07:58:22;2.17;;;0.20;;
47225;SDS011;32965;64.142;-21.912;2022-12-18T08:00:49;1.27;;;0.13;;
47225;SDS011;32965;64.142;-21.912;2022-12-18T08:03:15;2.60;;;0.40;;
47225;SDS011;32965;64.142;-21.912;2022-12-18T08:05:41;1.13;;;0.20;;
47225;SDS011;32965;64.142;-21.912;2022-12-18T08:08:07;0.30;;;0.10;;
47225;SDS011;32965;64.142;-21.912;2022-12-18T08:10:33;2.00;;;0.30;;
47225;SDS011;32965;64.142;-21.912;2022-12-18T08:12:59;0.77;;;0.20;;
47225;SDS011;32965;64.142;-21.912;2022-12-18T08:15:25;1.50;;;0.30;;
47225;SDS011;32965;64.142;-21.912;2022-12-18T08:17:51;0.10;;;0.00;;
47225;SDS011;32965;64.142;-21.912;2022-12-18T08:20:17;0.87;;;0.30;;
47225;SDS011;32965;64.142;-21.912;2022-12-18T08:22:44;0.40;;;0.20;;
47225;SDS011;32965;64.142;-21.912;2022-12-18T08:25:12;1.93;;;0.40;;
47225;SDS011;32965;64.142;-21.912;2022-12-18T08:27:38;0.90;;;0.10;;
47225;SDS011;32965;64.142;-21.912;2022-12-18T08:30:04;5.13;;;1.03;;
47225;SDS011;32965;64.142;-21.912;2022-12-18T08:32:31;1.27;;;0.30;;
47225;SDS011;32965;64.142;-21.912;2022-12-18T08:34:58;2.03;;;0.40;;
47225;SDS011;32965;64.142;-21.912;2022-12-18T08:37:24;1.40;;;0.37;;
47225;SDS011;32965;64.142;-21.912;2022-12-18T08:39:50;1.80;;;0.10;;
47225;SDS011;32965;64.142;-21.912;2022-12-18T08:42:16;0.50;;;0.30;;
47225;SDS011;32965;64.142;-21.912;2022-12-18T08:45:00;0.30;;;0.10;;
47225;SDS011;32965;64.142;-21.912;2022-12-18T08:47:26;1.33;;;0.20;;
47225;SDS011;32965;64.142;-21.912;2022-12-18T08:49:52;2.40;;;0.20;;
47225;SDS011;32965;64.142;-21.912;2022-12-18T08:52:18;0.10;;;0.10;;
47225;SDS011;32965;64.142;-21.912;2022-12-18T08:54:44;2.10;;;0.17;;
47225;SDS011;32965;64.142;-21.912;2022-12-18T08:57:10;0.83;;;0.20;;
47225;SDS011;32965;64.142;-21.912;2022-12-18T08:59:36;0.53;;;0.10;;
47225;SDS011;32965;64.142;-21.912;2022-12-18T09:02:03;1.23;;;0.20;;
47225;SDS011;32965;64.142;-21.912;2022-12-18T09:04:29;1.50;;;0.33;;
47225;SDS011;32965;64.142;-21.912;2022-12-18T09:06:55;1.13;;;0.30;;
47225;SDS011;32965;64.142;-21.912;2022-12-18T09:09:21;1.53;;;0.33;;
47225;SDS011;32965;64.142;-21.912;2022-12-18T09:11:47;2.23;;;0.33;;
47225;SDS011;32965;64.142;-21.912;2022-12-18T09:14:13;0.43;;;0.20;;
47225;SDS011;32965;64.142;-21.912;2022-12-18T09:16:39;2.73;;;0.30;;
47225;SDS011;32965;64.142;-21.912;2022-12-18T09:19:05;2.27;;;0.47;;
47225;SDS011;32965;64.142;-21.912;2022-12-18T09:21:32;2.20;;;0.40;;
47225;SDS011;32965;64.142;-21.912;2022-12-18T09:23:59;1.13;;;0.20;;
47225;SDS011;32965;64.142;-21.912;2022-12-18T09:26:26;0.50;;;0.27;;
47225;SDS011;32965;64.142;-21.912;2022-12-18T09:28:52;0.83;;;0.20;;
47225;SDS011;32965;64.142;-21.912;2022-12-18T09:31:19;1.67;;;0.40;;
47225;SDS011;32965;64.142;-21.912;2022-12-18T09:33:46;1.27;;;0.30;;
47225;SDS011;32965;64.142;-21.912;2022-12-18T09:36:13;1.03;;;0.30;;
47225;SDS011;32965;64.142;-21.912;2022-12-18T09:38:41;1.53;;;0.40;;
47225;SDS011;32965;64.142;-21.912;2022-12-18T09:44:25;1.63;;;0.20;;
47225;SDS011;32965;64.142;-21.912;2022-12-18T09:47:13;0.73;;;0.20;;
47225;SDS011;32965;64.142;-21.912;2022-12-18T09:49:46;1.23;;;0.90;;
47225;SDS011;32965;64.142;-21.912;2022-12-18T09:52:16;1.40;;;0.30;;
47225;SDS011;32965;64.142;-21.912;2022-12-18T09:54:51;1.63;;;0.43;;
47225;SDS011;32965;64.142;-21.912;2022-12-18T09:57:25;2.63;;;0.30;;
47225;SDS011;32965;64.142;-21.912;2022-12-18T09:59:55;6.53;;;0.80;;
47225;SDS011;32965;64.142;-21.912;2022-12-18T10:02:26;3.00;;;0.33;;
47225;SDS011;32965;64.142;-21.912;2022-12-18T10:05:12;0.70;;;0.20;;
47225;SDS011;32965;64.142;-21.912;2022-12-18T10:13:09;3.23;;;0.30;;
47225;SDS011;32965;64.142;-21.912;2022-12-18T10:16:12;3.93;;;0.37;;
47225;SDS011;32965;64.142;-21.912;2022-12-18T10:27:37;1.57;;;0.37;;
47225;SDS011;32965;64.142;-21.912;2022-12-18T10:29:56;1.30;;;0.30;;
47225;SDS011;32965;64.142;-21.912;2022-12-18T10:32:26;2.03;;;0.30;;
47225;SDS011;32965;64.142;-21.912;2022-12-18T10:34:55;1.20;;;0.30;;
47225;SDS011;32965;64.142;-21.912;2022-12-18T10:37:26;0.20;;;0.20;;
47225;SDS011;32965;64.142;-21.912;2022-12-18T10:42:32;0.47;;;0.30;;
47225;SDS011;32965;64.142;-21.912;2022-12-18T10:45:03;0.83;;;0.20;;
47225;SDS011;32965;64.142;-21.912;2022-12-18T10:50:19;1.07;;;0.40;;
47225;SDS011;32965;64.142;-21.912;2022-12-18T10:53:00;1.00;;;0.37;;
47225;SDS011;32965;64.142;-21.912;2022-12-18T10:55:35;1.77;;;0.50;;
47225;SDS011;32965;64.142;-21.912;2022-12-18T10:58:15;2.60;;;0.60;;
47225;SDS011;32965;64.142;-21.912;2022-12-18T11:01:09;2.17;;;0.33;;
47225;SDS011;32965;64.142;-21.912;2022-12-18T11:03:41;3.38;;;1.58;;
47225;SDS011;32965;64.142;-21.912;2022-12-18T11:06:10;2.07;;;0.40;;
47225;SDS011;32965;64.142;-21.912;2022-12-18T11:08:44;4.63;;;0.80;;
47225;SDS011;32965;64.142;-21.912;2022-12-18T11:11:23;3.50;;;0.60;;
47225;SDS011;32965;64.142;-21.912;2022-12-18T11:14:03;2.50;;;0.77;;
47225;SDS011;32965;64.142;-21.912;2022-12-18T11:16:33;3.10;;;0.40;;
47225;SDS011;32965;64.142;-21.912;2022-12-18T11:24:23;0.77;;;0.30;;
47225;SDS011;32965;64.142;-21.912;2022-12-18T11:26:52;3.37;;;0.70;;
47225;SDS011;32965;64.142;-21.912;2022-12-18T11:29:22;6.23;;;0.70;;
47225;SDS011;32965;64.142;-21.912;2022-12-18T11:34:50;3.27;;;0.60;;
47225;SDS011;32965;64.142;-21.912;2022-12-18T11:37:22;4.30;;;0.93;;
47225;SDS011;32965;64.142;-21.912;2022-12-18T11:39:50;0.40;;;0.30;;
47225;SDS011;32965;64.142;-21.912;2022-12-18T11:50:25;1.77;;;0.50;;
47225;SDS011;32965;64.142;-21.912;2022-12-18T11:52:57;1.47;;;0.50;;
47225;SDS011;32965;64.142;-21.912;2022-12-18T12:15:05;0.53;;;0.40;;
47225;SDS011;32965;64.142;-21.912;2022-12-18T12:20:19;3.90;;;0.70;;
47225;SDS011;32965;64.142;-21.912;2022-12-18T12:23:24;6.10;;;2.20;;
47225;SDS011;32965;64.142;-21.912;2022-12-18T12:41:38;6.47;;;1.60;;
47225;SDS011;32965;64.142;-21.912;2022-12-18T12:44:28;7.10;;;1.50;;
47225;SDS011;32965;64.142;-21.912;2022-12-18T12:47:07;3.67;;;0.90;;
47225;SDS011;32965;64.142;-21.912;2022-12-18T12:49:48;3.57;;;1.37;;
47225;SDS011;32965;64.142;-21.912;2022-12-18T12:52:27;2.27;;;1.10;;
47225;SDS011;32965;64.142;-21.912;2022-12-18T12:55:00;3.30;;;1.03;;
47225;SDS011;32965;64.142;-21.912;2022-12-18T12:57:42;4.10;;;0.90;;
47225;SDS011;32965;64.142;-21.912;2022-12-18T13:00:13;4.93;;;1.40;;
47225;SDS011;32965;64.142;-21.912;2022-12-18T13:02:43;5.97;;;1.17;;
47225;SDS011;32965;64.142;-21.912;2022-12-18T13:08:09;4.55;;;1.50;;
47225;SDS011;32965;64.142;-21.912;2022-12-18T13:13:06;4.20;;;1.60;;
47225;SDS011;32965;64.142;-21.912;2022-12-18T13:15:36;4.60;;;1.40;;
47225;SDS011;32965;64.142;-21.912;2022-12-18T13:31:08;27.48;;;11.13;;
47225;SDS011;32965;64.142;-21.912;2022-12-18T13:36:15;21.63;;;8.13;;
47225;SDS011;32965;64.142;-21.912;2022-12-18T13:59:59;13.97;;;4.50;;
47225;SDS011;32965;64.142;-21.912;2022-12-18T14:02:44;10.93;;;3.80;;
47225;SDS011;32965;64.142;-21.912;2022-12-18T14:05:30;8.87;;;3.20;;
47225;SDS011;32965;64.142;-21.912;2022-12-18T14:08:01;12.03;;;3.10;;
47225;SDS011;32965;64.142;-21.912;2022-12-18T14:10:48;10.30;;;3.00;;
47225;SDS011;32965;64.142;-21.912;2022-12-18T14:16:04;7.80;;;2.10;;
47225;SDS011;32965;64.142;-21.912;2022-12-18T14:28:55;5.13;;;2.43;;
47225;SDS011;32965;64.142;-21.912;2022-12-18T14:31:43;4.50;;;1.40;;
47225;SDS011;32965;64.142;-21.912;2022-12-18T14:34:16;3.93;;;1.53;;
47225;SDS011;32965;64.142;-21.912;2022-12-18T14:36:51;3.63;;;1.27;;
47225;SDS011;32965;64.142;-21.912;2022-12-18T14:39:18;2.87;;;1.20;;
47225;SDS011;32965;64.142;-21.912;2022-12-18T14:41:44;3.03;;;1.00;;
47225;SDS011;32965;64.142;-21.912;2022-12-18T14:44:11;4.77;;;1.40;;
47225;SDS011;32965;64.142;-21.912;2022-12-18T14:46:38;2.57;;;0.97;;
47225;SDS011;32965;64.142;-21.912;2022-12-18T14:49:26;3.40;;;1.10;;
47225;SDS011;32965;64.142;-21.912;2022-12-18T14:51:53;5.83;;;1.30;;
47225;SDS011;32965;64.142;-21.912;2022-12-18T14:54:21;3.45;;;1.17;;
47225;SDS011;32965;64.142;-21.912;2022-12-18T14:56:49;3.77;;;1.00;;
47225;SDS011;32965;64.142;-21.912;2022-12-18T14:59:25;4.57;;;1.33;;
47225;SDS011;32965;64.142;-21.912;2022-12-18T15:02:03;2.77;;;1.03;;
47225;SDS011;32965;64.142;-21.912;2022-12-18T15:04:41;3.15;;;1.33;;
47225;SDS011;32965;64.142;-21.912;2022-12-18T15:12:36;7.03;;;2.03;;
47225;SDS011;32965;64.142;-21.912;2022-12-18T15:17:58;7.40;;;2.43;;
47225;SDS011;32965;64.142;-21.912;2022-12-18T15:20:44;7.50;;;2.03;;
47225;SDS011;32965;64.142;-21.912;2022-12-18T15:26:12;4.63;;;2.15;;
47225;SDS011;32965;64.142;-21.912;2022-12-18T15:28:44;7.10;;;1.70;;
47225;SDS011;32965;64.142;-21.912;2022-12-18T15:33:39;4.63;;;1.20;;
47225;SDS011;32965;64.142;-21.912;2022-12-18T15:36:15;5.27;;;1.20;;
47225;SDS011;32965;64.142;-21.912;2022-12-18T15:38:46;2.63;;;1.20;;
47225;SDS011;32965;64.142;-21.912;2022-12-18T15:41:16;4.53;;;1.27;;
47225;SDS011;32965;64.142;-21.912;2022-12-18T15:43:43;4.68;;;1.33;;
47225;SDS011;32965;64.142;-21.912;2022-12-18T15:46:11;4.47;;;1.37;;
47225;SDS011;32965;64.142;-21.912;2022-12-18T15:48:40;3.78;;;1.08;;
47225;SDS011;32965;64.142;-21.912;2022-12-18T15:51:18;3.20;;;1.03;;
47225;SDS011;32965;64.142;-21.912;2022-12-18T15:53:47;4.00;;;1.03;;
47225;SDS011;32965;64.142;-21.912;2022-12-18T15:56:15;3.50;;;1.20;;
47225;SDS011;32965;64.142;-21.912;2022-12-18T15:59:00;5.43;;;1.43;;
47225;SDS011;32965;64.142;-21.912;2022-12-18T16:01:27;4.50;;;1.10;;
47225;SDS011;32965;64.142;-21.912;2022-12-18T16:03:54;3.58;;;0.90;;
47225;SDS011;32965;64.142;-21.912;2022-12-18T16:06:21;4.00;;;1.60;;
47225;SDS011;32965;64.142;-21.912;2022-12-18T16:08:47;2.60;;;1.13;;
47225;SDS011;32965;64.142;-21.912;2022-12-18T16:11:19;4.23;;;1.27;;
47225;SDS011;32965;64.142;-21.912;2022-12-18T16:14:17;5.30;;;1.10;;
47225;SDS011;32965;64.142;-21.912;2022-12-18T16:16:49;3.67;;;1.07;;
47225;SDS011;32965;64.142;-21.912;2022-12-18T16:19:17;3.25;;;1.17;;
47225;SDS011;32965;64.142;-21.912;2022-12-18T16:21:43;3.33;;;0.90;;
47225;SDS011;32965;64.142;-21.912;2022-12-18T16:24:12;2.47;;;1.23;;
47225;SDS011;32965;64.142;-21.912;2022-12-18T16:26:42;3.47;;;1.07;;
47225;SDS011;32965;64.142;-21.912;2022-12-18T16:29:11;4.07;;;1.20;;
47225;SDS011;32965;64.142;-21.912;2022-12-18T16:31:37;2.78;;;0.63;;
47225;SDS011;32965;64.142;-21.912;2022-12-18T16:34:19;5.80;;;1.73;;
47225;SDS011;32965;64.142;-21.912;2022-12-18T16:36:50;3.27;;;1.53;;
47225;SDS011;32965;64.142;-21.912;2022-12-18T16:39:18;3.53;;;0.70;;
47225;SDS011;32965;64.142;-21.912;2022-12-18T16:41:44;1.90;;;0.70;;
47225;SDS011;32965;64.142;-21.912;2022-12-18T16:44:11;1.63;;;0.90;;
47225;SDS011;32965;64.142;-21.912;2022-12-18T16:46:37;3.20;;;1.07;;
47225;SDS011;32965;64.142;-21.912;2022-12-18T16:49:04;1.83;;;1.00;;
47225;SDS011;32965;64.142;-21.912;2022-12-18T16:51:33;2.40;;;0.90;;
47225;SDS011;32965;64.142;-21.912;2022-12-18T16:56:24;2.07;;;0.70;;
47225;SDS011;32965;64.142;-21.912;2022-12-18T16:58:51;3.43;;;1.10;;
47225;SDS011;32965;64.142;-21.912;2022-12-18T17:01:18;4.73;;;1.67;;
47225;SDS011;32965;64.142;-21.912;2022-12-18T17:03:44;3.93;;;1.20;;
47225;SDS011;32965;64.142;-21.912;2022-12-18T17:06:20;3.40;;;1.00;;
47225;SDS011;32965;64.142;-21.912;2022-12-18T17:08:46;3.10;;;0.80;;
47225;SDS011;32965;64.142;-21.912;2022-12-18T17:11:13;6.30;;;1.20;;
47225;SDS011;32965;64.142;-21.912;2022-12-18T17:13:38;3.70;;;0.57;;
47225;SDS011;32965;64.142;-21.912;2022-12-18T17:16:05;1.50;;;0.70;;
47225;SDS011;32965;64.142;-21.912;2022-12-18T17:47:08;18.27;;;7.20;;
47225;SDS011;32965;64.142;-21.912;2022-12-18T17:49:36;15.82;;;7.35;;
47225;SDS011;32965;64.142;-21.912;2022-12-18T17:52:02;18.40;;;8.70;;
47225;SDS011;32965;64.142;-21.912;2022-12-18T17:54:28;17.97;;;7.90;;
47225;SDS011;32965;64.142;-21.912;2022-12-18T17:56:54;15.33;;;7.30;;
47225;SDS011;32965;64.142;-21.912;2022-12-18T17:59:20;18.30;;;6.17;;
47225;SDS011;32965;64.142;-21.912;2022-12-18T18:01:46;23.87;;;5.50;;
47225;SDS011;32965;64.142;-21.912;2022-12-18T18:04:12;32.77;;;9.90;;
47225;SDS011;32965;64.142;-21.912;2022-12-18T18:06:39;85.37;;;29.43;;
47225;SDS011;32965;64.142;-21.912;2022-12-18T18:09:07;83.17;;;30.03;;
47225;SDS011;32965;64.142;-21.912;2022-12-18T18:11:33;71.05;;;27.30;;
47225;SDS011;32965;64.142;-21.912;2022-12-18T18:14:18;74.80;;;24.93;;